events-overview

Kinetic Sprint

 

Overall Women

Lake Anna State Park - Spotsylvania, VA 5/15/2011 09:00AM

** Results are for the private use of participants and are the Intellectual Property of Set Up Events. Unauthorized use of these results is prohibited.

Place Bib Ag S NAME city/state Rank SWIM Rank T1 Rank BIKE Rank T2 Rank RUN PENALTY TIME DQ
166939FHeather WestermanLigonier PA100:09:531000:01:55100:45:412100:01:00600:21:31 01:19:59 
242128FElizabeth McGrathArlington VA1000:11:29400:01:45200:47:38800:00:531100:21:54 01:23:37 
31631FLisa AlbrechtReston VA2400:13:09200:01:40400:48:431900:00:59400:21:25 01:25:53 
41142FJuliet AdamsVirginia Beach VA900:11:232100:02:041100:50:064700:01:121400:22:01 01:26:43 
57228FTrish BlackwellGlen Allen VA300:10:341800:02:011700:50:48700:00:512000:22:46 01:26:58 
662837FMelissa TallentAlexandria VA1400:11:411200:01:581400:50:192800:01:041800:22:28 01:27:28 
761729FKim StepienChevy Chase MD200:10:33500:01:52700:49:445400:01:133600:24:14 01:27:34 
816330FFrancesca Di SilvioWashington DC700:11:15100:01:363100:52:28100:00:391000:21:49 01:27:46 
948546FConnie PetersonHarrisonburg VA1200:11:323900:02:22300:47:595800:01:155700:25:22 01:28:27 
1036030FCaroline LauverArlington VA3000:13:224700:02:25500:49:2310900:01:331300:21:57 01:28:39 
1141735FRachel McCarthyFalls Church VA2200:12:493000:02:162200:51:291500:00:56800:21:37 01:29:05 
1241344FLeanne McAllisterLeesburg VA4500:13:55300:01:422000:51:25600:00:50900:21:40 01:29:29 
1346531FErica PachecoFairfax VA5800:14:151700:02:001300:50:18900:00:531700:22:18 01:29:42 
1464327FJo-Ann Van AswegenAlexandria VA1800:12:262500:02:123200:52:3310400:01:30300:21:14 01:29:54 
1561332FKatie SteadmanWinchester VA3900:13:404900:02:27800:49:475500:01:142300:22:55 01:30:01 
1665528FLindsey WardAnnapolis MD5600:14:119400:02:52600:49:281400:00:562200:22:48 01:30:13 
1749430FTaylor PolingArlington VA4400:13:553300:02:172300:51:345600:01:14700:21:33 01:30:30 
1842646FCherie MehlerRockville VA3600:13:323600:02:20900:49:515200:01:133800:24:21 01:31:17 
1937632FKatherine LiolaArlington VA2000:12:393100:02:163300:52:5410200:01:291900:22:39 01:31:55 
2063230FJulie ThorntonMoseley VA1600:12:104100:02:223700:53:169700:01:282100:22:46 01:32:01 
2115231FKarly DeckerRockville MD2600:13:153200:02:172400:51:364800:01:122800:23:43 01:32:01 
2255031FTiffany RussellVirginia Beach VA5900:14:15700:01:541500:50:351100:00:544400:24:34 01:32:10 
2367840FSusan WinkloskyAshburn VA4200:13:487000:02:371600:50:423000:01:073200:24:07 01:32:19 
2457537FAnn SheehyMiddleton WI3100:13:2411300:03:016000:55:392500:01:03100:20:24 01:33:29 
2524935FKelly GreenWashington DC2500:13:122000:02:046200:55:4815700:01:57200:20:37 01:33:35 
2647134FJulie ParksAlexandria VA2900:13:201500:01:594600:54:181300:00:552500:23:27 01:33:56 
2715128FArlene DecindioVirginia Beach VA6100:14:212700:02:155100:54:291800:00:591500:22:05 01:34:07 
2835842FSuzanne Laprade LewisRichmond VA3200:13:251300:01:585700:55:233800:01:101600:22:14 01:34:08 
2924733FMargaret GrayReston VA4900:14:025100:02:292800:52:107800:01:234100:24:27 01:34:29 
3050539FStephanie ProssCulpeper VA1500:12:053800:02:213000:52:186000:01:158200:26:33 01:34:31 
PlaceBibAgSNAMEcity/stateRankSWIMRankT1RankBIKERankT2RankRUNPENALTYTIMEDQ
3168427FChloe Young-HymanWashington DC800:11:16800:01:547200:56:40500:00:493000:24:01 01:34:39 
3226045FSheila HallRockville MD6500:14:292300:02:081000:50:037100:01:229200:26:53 01:34:53 
3328851FCarol HousamanWoodbridge VA7100:14:474800:02:262600:51:5312300:01:393500:24:10 01:34:53 
3438950FMary Pat MabeusMontclair VA5300:14:0912500:03:121800:51:178900:01:274900:24:59 01:35:01 
3528148FJulia HigginsSpringfield VA7600:14:547800:02:431900:51:1815300:01:554200:24:31 01:35:19 
3655738FSara SantoskiVirginia Beach VA2700:13:185700:02:312500:51:473300:01:088600:26:43 01:35:25 
3739231FAnne MahlumWashington DC13000:16:397300:02:393400:53:0413400:01:45500:21:28 01:35:33 
3834032FEmily KomiskeyWoodberry Forest VA11500:16:094500:02:254200:53:5011100:01:331200:21:57 01:35:51 
3921040FAlison FreemanVienna VA2300:13:062900:02:164300:53:547700:01:235600:25:21 01:35:57 
4039025FSamantha MaderArlington VA5000:14:024000:02:224000:53:252900:01:055100:25:07 01:35:59 
4134747FKimberley KruseArlington VA6400:14:281900:02:013900:53:222600:01:035400:25:14 01:36:06 
4255547FDenyse SandersonBlacksburg VA8900:15:285800:02:322100:51:294400:01:116400:25:48 01:36:26 
432029FSarah AllenWilliamsburg VA4100:13:442800:02:154400:53:581700:00:596100:25:33 01:36:27 
4436724FJessica LehmanFredericksburg VA4700:13:576000:02:322900:52:132700:01:048900:26:46 01:36:29 
4518029FWhitney DunningSuffolk VA13400:16:466600:02:363500:53:075100:01:132700:23:38 01:37:17 
4663835FKanchani AlgamaHanover VA3700:13:377700:02:436400:55:545900:01:153300:24:09 01:37:35 
4740953FConnie MaxwellNewport News VA5500:14:1111200:03:011200:50:153200:01:0813800:29:16 01:37:48 
4840837FDana MaulFalls Church VA10100:15:4110100:02:583800:53:176700:01:204600:24:37 01:37:51 
4922828FStephanie GibsonArlington VA600:11:156800:02:368100:57:4213300:01:454700:24:38 01:37:53 
5039727FLaura MalnatiFairfax VA13800:17:016100:02:322700:51:554000:01:115800:25:24 01:38:01 
517939FJennifer BoyntonArlington VA9500:15:346200:02:333600:53:1510000:01:295900:25:26 01:38:15Y
5239930FPatrizia ManessArlington VA6200:14:285500:02:305600:55:213100:01:074800:24:54 01:38:18 
5328636FMichaux HoodCharlottesville VA1300:11:3214500:03:326600:56:2211800:01:365500:25:19 01:38:19 
547129FGenia BlackwellArlington VA8300:15:144600:02:254900:54:242300:01:006300:25:44 01:38:46 
5541531FKatie McAuliffeLansdowne VA2800:13:19900:01:555000:54:282200:01:0012400:28:24 01:39:04 
5665957FElizabeth WeaverChevy Chase MD5700:14:1211800:03:076100:55:4013100:01:444000:24:25 01:39:05 
5757234FBrenda SeylerGlen Allen VA13500:16:475200:02:305800:55:237900:01:232400:23:18 01:39:19 
5855636FMarisa SantisiAshburn VA6300:14:287200:02:394800:54:228300:01:248000:26:32 01:39:23 
5939540FShannon MalkersonMidlothian VA500:11:103500:02:2010401:00:411000:00:535300:25:11 01:40:14 
6051833FSara ReinthalerNew York NY11800:16:1010600:02:594100:53:499300:01:277500:26:17 01:40:41 
6165724FMadeleine WatkinsBethsda MD8100:15:109500:02:537400:56:4313200:01:443900:24:24 01:40:52 
PlaceBibAgSNAMEcity/stateRankSWIMRankT1RankBIKERankT2RankRUNPENALTYTIMEDQ
6217017FKathleen DodsonSpringfield VA400:10:561100:01:589601:00:122000:00:599300:27:05 01:41:08 
6367655FCharlene WilhelmRichmond VA12600:16:336900:02:364500:54:113400:01:089600:27:11 01:41:37 
6447534FDenise PattersonVirginia Beach VA15000:17:494300:02:235200:54:357000:01:216200:25:37 01:41:44 
658527FJamie BrennanVirginia Beach VA6900:14:441400:01:5910101:00:333600:01:092900:23:49 01:42:11 
6643851FKirsten MolloyRockville MD11400:16:087400:02:394700:54:1910800:01:326500:25:5200:02:0001:42:29 
675338FWendy BaumertSilver Spring MD2100:12:471600:02:009400:59:554900:01:128800:26:45 01:42:37 
6832618FKarley KendrickMontclair VA3500:13:275000:02:2911401:01:313700:01:093400:24:09 01:42:43 
6958846FAlison SimonWashington DC9100:15:282200:02:077600:57:024200:01:119500:27:11 01:42:57 
7050045FMichele PotterGermantown MD14400:17:259000:02:515400:55:0512900:01:426900:26:04 01:43:05 
7120024FHolli FinnerenWashington DC9900:15:3714900:03:396700:56:2610100:01:297200:26:10 01:43:19 
7248341FAngela PerraultKeswick VA14800:17:444400:02:245900:55:291600:00:589000:26:50 01:43:23 
7362332FMelinda SwisherHarrisonburg VA9200:15:295600:02:307800:57:1916900:02:037300:26:11 01:43:31 
7464131FBurcu UzerWashington DC13300:16:455900:02:327300:56:426400:01:167800:26:22 01:43:35 
7557046FCindy SearcyArlington VA3800:13:378700:02:508900:58:5013700:01:468400:26:40 01:43:40 
7638035FLauren LobranoAlexandria VA12800:16:3912700:03:126800:56:2614000:01:476800:25:55 01:43:58 
7733541FAlexandra KlaffLeesburg VA8000:15:0813900:03:288300:58:0717600:02:125200:25:09 01:44:03 
7858925FWhitney SimonsAlexandria VA4300:13:546400:02:346900:56:274300:01:1114800:30:04 01:44:08 
7941828FBrigid McEvillySpringfield VA11100:16:076700:02:369200:59:159500:01:285000:25:05 01:44:29 
8011637FHeather ClevengerTemple TX1900:12:273700:02:217900:57:3014700:01:5215600:30:46 01:44:54 
8149723FCorinn PopeArlington VA8400:15:219800:02:567500:56:4911000:01:3312600:28:27 01:45:04 
825732FJennifer BeatleyWinchester VA11600:16:099200:02:515300:54:4413800:01:4614400:29:36 01:45:05 
8322230FMolly GargesKensington MD15700:18:1610800:03:008700:58:2117100:02:042600:23:37 01:45:16 
8414234FGretchen CullenbergArlington VA14600:17:265400:02:306300:55:5012000:01:3612000:28:20 01:45:41 
856020FItziar BelausteguigoitiaBethesda MD4000:13:4312100:03:0910601:00:4715000:01:547400:26:14 01:45:44 
8637825FLauren LivingstonWashington DC3400:13:266500:02:3411501:01:329000:01:279100:26:52 01:45:50 
8752945FSharon RobertsonStafford VA5400:14:1016200:03:569000:58:5913600:01:4610200:27:19 01:46:07 
8865135FMolly VorsterMidlothian VA7400:14:539300:02:518500:58:1616700:02:0112200:28:21 01:46:21 
8915941FJuliette DesousaWashington DC1100:11:3115600:03:4814401:04:5515500:01:553700:24:17 01:46:23 
9018539FKimberly EllisVienna VA5200:14:088900:02:516500:56:0115200:01:5416800:31:34 01:46:26 
9136356FCatherine LeeCulpeper VA7900:15:077900:02:448800:58:2211900:01:3613300:28:52 01:46:39 
9243433FHaley MilesAshburn VA8600:15:2415000:03:418000:57:398100:01:2412900:28:44 01:46:50 
PlaceBibAgSNAMEcity/stateRankSWIMRankT1RankBIKERankT2RankRUNPENALTYTIMEDQ
9363535FChristina TragleLeesburg VA14200:17:223400:02:197100:56:406100:01:1510100:27:1700:02:0001:46:52 
9471854FJulia PeckCulpeper VA10700:15:57600:01:538400:58:11200:00:4615200:30:21 01:47:08 
9559543FBecky SmithLaurel MD10800:15:598800:02:508200:57:4912400:01:3914000:29:24 01:47:40 
9649545FTracy PolingManakin Sabot VA8500:15:214200:02:2310801:00:5311200:01:3310500:27:33 01:47:41 
973653FMarjorie AuerAlexandria VA6700:14:3510300:02:599300:59:325700:01:1414600:29:55 01:48:13 
981823FCaitlin AlexanderStaunton VA9800:15:362600:02:1313001:03:332400:01:017000:26:04 01:48:25 
9931428FKymberly JordanArlington VA13700:17:0010900:03:009801:00:1615100:01:547700:26:18 01:48:26 
10058352FTina ShiverRichmond VA15400:18:047500:02:417700:57:156200:01:1513900:29:19 01:48:32 
10154731FRebecca RoyerHarrisonburg VA10000:15:379100:02:5110301:00:3714100:01:4710700:27:42 01:48:33 
10239127FRachel MagnusArlington VA17000:18:458100:02:459701:00:1615900:01:577600:26:18 01:49:59 
10320628FTamara ForysWashington DC13100:16:4415200:03:4212901:03:319800:01:294500:24:37 01:50:01 
1042128FLaura AllredColumbia MD9600:15:348400:02:4811001:01:0819800:02:3711700:28:18 01:50:24 
10543122FAmy MiaoNorth Potomac MD7700:15:017600:02:4110501:00:474500:01:1216300:31:07 01:50:45 
10615719FMeghan DennyBristow VA10200:15:4318700:04:2110701:00:508800:01:2612800:28:39 01:50:58 
10749033FDebora PfaffBurke VA12900:16:3911100:03:009501:00:0920600:02:4812700:28:31 01:51:06 
1085829FLauren BeckerWashington DC7200:14:5012000:03:0912201:02:2213000:01:4313600:29:08 01:51:10 
10940456FLenora MarinerMidlothian VA20300:21:5913800:03:287000:56:3816200:01:599800:27:14 01:51:17 
11031136FMargaret JohnsonAlexandria VA4600:13:5614800:03:3816001:06:27300:00:478700:26:44 01:51:30 
11146228FJanine O'DonnellAlexandria VA7300:14:5113000:03:159100:59:0815800:01:5717700:32:29 01:51:39 
11230143FLaura JacksonArlington VA13200:16:4516800:03:5715601:05:534600:01:123100:24:02 01:51:46 
11329926FErin HypesAlexandria VA16900:18:4111000:03:0010001:00:2610500:01:3011600:28:11 01:51:47 
11462220FHeather SweetAttleboro MA12000:16:1312400:03:1113101:03:3910700:01:329900:27:16 01:51:49 
11554937FChristina RussellWashington DC10900:16:0015300:03:4611701:01:4813900:01:4613500:28:58 01:52:15 
11648721FLessley PetersonBear DE7500:14:5310700:02:5912001:02:1611600:01:3515500:30:40 01:52:21 
11739835FDonna MalpeliAshburn VA14700:17:3518300:04:1512401:02:4612500:01:397900:26:23 01:52:37 
1181919FRachel AlexanderStaunton VA7000:14:445300:02:3015501:05:461200:00:5413100:28:51 01:52:44 
1195057FMaggie BartlettBoyds MD10400:15:4410400:02:5911801:01:538200:01:2415700:30:47 01:52:45 
12051935FAmy ReynoldsWinchester VA1700:12:1217100:04:0214101:04:3114800:01:5311900:28:1900:02:0001:52:55 
12166641FCindy WendtGlen Allen VA16800:18:338600:02:4914001:04:276800:01:206600:25:52 01:53:00 
12238826FLizzy LynchWashington DC10500:15:4615100:03:4214901:05:177300:01:229700:27:14 01:53:18 
12351226FAmber RamseyVirginia Beach VA12700:16:3413400:03:1912301:02:4119000:02:3013200:28:52 01:53:55 
PlaceBibAgSNAMEcity/stateRankSWIMRankT1RankBIKERankT2RankRUNPENALTYTIMEDQ
12459132FElizabeth SkaneTakoma Park MD14900:17:479700:02:5510901:01:0417300:02:0815100:30:06 01:53:59 
12513147FLeah CoughlinCentreville VA18200:20:0113300:03:1911301:01:239100:01:2711100:28:01 01:54:09 
12634357FMargot KraussKesington MD10600:15:479600:02:5313301:03:5612200:01:3915000:30:05 01:54:17 
12726232FBarbara HancockWashington DC4800:13:5910200:02:5816501:07:1616300:02:0012500:28:25 01:54:35 
12868747FLynn ZipfSilver Spring MD18700:20:1511400:03:0215101:05:2215600:01:564300:24:32 01:55:05 
12911227FKeri ChristiansonWashington DC8700:15:2619200:04:3015901:06:0822200:03:187100:26:06 01:55:25 
13054821FStephanie RubinSpotsylvania VA5100:14:0714300:03:3117001:07:4816400:02:0011300:28:07 01:55:32 
13132339FShelley KavlickArlington VA17900:19:4719600:04:3412501:02:4917200:02:068100:26:32 01:55:46 
13247027FAlexa PapadimosWashington DC17600:19:1711900:03:0715301:05:255300:01:1310000:27:16 01:56:16 
13325838FKerensa HadleyFairfax VA11300:16:0816900:04:0013701:04:108700:01:2615400:30:39 01:56:20 
13426936FMichelle HartVirginia Beach VA14500:17:2511500:03:0311201:01:2217400:02:0818000:32:54 01:56:51 
13532434FCarly KeaneWinchester VA9400:15:3210500:02:5914201:04:367600:01:2317900:32:50 01:57:18 
13634931FKaris KuperFairfax VA12100:16:1513100:03:1710201:00:349600:01:2819400:35:52 01:57:24 
1376331FMelissa BenikFalls Church VA11900:16:1117600:04:0716701:07:2316500:02:0011000:27:57 01:57:37 
13816649FAmy DicksteinPotomac MD18000:19:4719100:04:2611901:02:0717900:02:1413700:29:12 01:57:44 
13956240FLorenna SchneehagenCharlottesville VA19900:21:2619400:04:3213601:04:0714200:01:486700:25:54 01:57:46 
14041115FAshleigh McAllisterLeesburg VA8200:15:138300:02:4819001:11:004100:01:1110800:27:49 01:57:59 
1417430FKelley BoomArlington VA14300:17:2320700:05:0116601:07:2220400:02:466000:25:32 01:58:02 
1429543FMaya BruckArlington VA16200:18:2712800:03:1313401:04:039400:01:2817500:32:20 01:59:28 
14352366FCarolyn RiceBurke VA21000:22:4120400:04:5111101:01:2119900:02:3812100:28:21 01:59:48 
14460243FSusan SnyderPotomac Falls VA19300:20:5820300:04:4612101:02:2222600:04:1011500:28:10 02:00:23 
1457625FValerie BoothCentreville VA20900:22:3710000:02:57    22801:01:42 02:00:48Y
14625244FNatalie GregoryFairfax VA8800:15:2616400:03:5618201:09:4812700:01:4114700:30:01 02:00:51 
14754426FPauline RoukensWashington DC6600:14:3413500:03:1916901:07:4414600:01:5218400:33:31 02:00:58 
14843343FLeland MiddletonWashington DC19400:20:5918800:04:2512601:02:5320200:02:4411200:28:0700:02:0002:01:06 
149628FHolly TompkinsArlington VA12400:16:2911600:03:0515401:05:443900:01:1018900:34:41 02:01:07 
1505134FJan BauerArlington VA22000:24:2914000:03:298600:58:1911700:01:3518300:33:28 02:01:19 
15113051FAnn CorranSilver Spring MD18400:20:0120600:04:5913801:04:146300:01:1515900:30:52 02:01:19 
15258128FMarla ShermanEllicott City MD9700:15:3416100:03:5513901:04:2210300:01:3019600:36:00 02:01:20 
15331027FCourtney JohnsonElkridge MD16500:18:3017800:04:0813501:04:0520000:02:4017300:32:07 02:01:30 
15435325FNicole LSilver Spring MD16600:18:3221300:05:0817301:08:078500:01:2512300:28:22 02:01:32 
PlaceBibAgSNAMEcity/stateRankSWIMRankT1RankBIKERankT2RankRUNPENALTYTIMEDQ
15518726FEleanor EnnisMcLean VA6800:14:3619800:04:3518101:08:519200:01:2717200:32:07 02:01:34 
15660743FTamara SperlingWashington DC18100:19:5522400:06:0615701:05:5721500:03:028500:26:42 02:01:41 
15735247FJoan KvenlogStafford VA12500:16:3017200:04:0311601:01:4118700:02:3020000:37:04 02:01:45 
15854146FLisa RosenbergBethesda MD19800:21:2617500:04:0612701:02:5418900:02:3016700:31:20 02:02:13 
15960964FKari SprecherLeesburg VA17200:18:5014700:03:3612801:03:2919500:02:3518600:33:56 02:02:25 
16030234FSharon JacobsWoodberry Forest VA6000:14:198500:02:4917901:08:2816000:01:5919000:34:54 02:02:27 
16163446FJeanne TownendFalls Church VA17500:19:1218500:04:1914801:05:179900:01:2917400:32:15 02:02:31 
16255343FChristine SalmonSouth Riding VA18300:20:0120500:04:5816301:07:1318200:02:1811400:28:08 02:02:36 
16349638FAndrea PooleWashington DC13900:17:1619000:04:2514701:05:1621100:02:5718100:32:56 02:02:49 
16427936FBeth HigaWashington DC14000:17:2016600:03:5613201:03:4616800:02:0319300:35:47 02:02:51 
16527843FStefanie HessionFairfax VA19100:20:452400:02:0816801:07:296600:01:1916600:31:14 02:02:54 
16635725FStacey LantzWashington DC22300:24:488000:02:4414601:05:096500:01:1813400:28:57 02:02:55 
16714029FKris CroninWashington DC11700:16:1022900:08:0415201:05:2322800:05:5710600:27:37 02:03:09 
16853650FJulie RogersVirginia Beach VA17300:18:5613200:03:1817601:08:1514500:01:5216000:30:53 02:03:12 
16951424FMarie RandolphHarrisonburg VA16700:18:3316700:03:5617501:08:1312100:01:3616400:31:09 02:03:26 
17047819FKayla PeckBristow VA18500:20:1018600:04:2018001:08:5111500:01:3513000:28:45 02:03:38 
1718618FEmma BrightBristow VA15300:17:5515700:03:5220301:13:578000:01:238300:26:34 02:03:39 
17265238FJennifer WalkawiczNorfolk VA17100:18:5014100:03:2917701:08:1518100:02:1517000:31:53 02:04:40 
17352040FChristine ReynoldsDumfries VA16400:18:2913700:03:2416201:07:1320100:02:4218200:33:01 02:04:47 
17424534FHeather GorbyWashington DC17700:19:2415500:03:4814501:05:0418000:02:1418700:34:31 02:05:00 
17533134FSandy KimAlexandria VA19500:21:1721900:05:3515001:05:1821900:03:1014500:29:51 02:05:10 
17644755FMolly MyersKensington MD13600:16:5115900:03:5314301:04:4120900:02:5120100:37:12 02:05:26 
17718632FChristine EnnisWashington DC18800:20:1818000:04:1116401:07:1516600:02:0117100:31:56 02:05:39 
1783827FMargurette AwadArlington VA17800:19:2612900:03:1418301:09:5219600:02:3516100:30:54 02:06:00 
17955243FHala Salha FayyadRockville MD17400:19:0812600:03:1217201:08:0517800:02:1418500:33:49 02:06:25 
18029638FLeslie HutchensHerndon VA16300:18:2812300:03:1019301:11:5414900:01:5316500:31:11 02:06:34 
18124638FAnne GovertAlexandria VA9000:15:2812200:03:0920201:13:5111300:01:3417800:32:49 02:06:49 
1821027FSara AbbeLunchburg VA10300:15:4419700:04:3416101:07:0117000:02:0420200:37:41 02:07:02 
18336927FCara LeidyWashington DC15200:17:5320200:04:4020701:15:216900:01:2110900:27:52 02:07:05 
18440543FDonna MarzoWashington DC16100:18:2217000:04:0015801:05:5719400:02:3419800:36:21 02:07:12 
1858747FSuzie BrightBristow VA21400:23:1617300:04:0317801:08:267500:01:2216200:30:59 02:08:04 
PlaceBibAgSNAMEcity/stateRankSWIMRankT1RankBIKERankT2RankRUNPENALTYTIMEDQ
18616150FLinda DevlinNorth Potomac MD22600:25:3617700:04:0819201:11:4317500:02:109400:27:08 02:10:43 
18735039FStephanie KurkaAlexandria VA22400:24:5119300:04:3217101:08:0122100:03:1315300:30:36 02:11:11 
18857826FLiann ShepardAlexandria VA15900:18:1913600:03:2022001:19:413500:01:0814200:29:32 02:11:58 
18957726FJenna ShepardAlexandria VA14100:17:2017900:04:0922101:19:475000:01:1214100:29:32 02:11:58 
19031244FJessica JonesGaithersburg MD15100:17:5014400:03:3120401:14:2811400:01:3418800:34:38 02:12:01 
19110741FClaudia CentenoAshburn VA22800:27:328200:02:4519101:11:2312600:01:4014300:29:36 02:12:54 
19237734FJamie LipseyWashington DC20100:21:3622800:06:4120501:14:4020800:02:5111800:28:19 02:14:05 
19318331FAlison EddyArlington VA20000:21:3521000:05:0218501:10:1619100:02:3119100:35:03 02:14:25 
1949132FLaura BrownCentreville VA12300:16:2115800:03:5319601:12:4318500:02:2721400:39:51 02:15:12 
1959632FJessica Bryant-BertailWashington DC3300:13:2611700:03:0622701:29:5914300:01:5010300:27:20 02:15:38 
19627434FShannon HeplerWashington DC19200:20:4823000:10:1018401:10:0920700:02:5016900:31:52 02:15:48 
19725132FSara GreeneSpringfield VA22500:25:3020100:04:3920901:15:5519200:02:3110400:27:32 02:16:05 
19827532FKimberly HerbertSpringfield VA19700:21:2018900:04:2519401:12:0021800:03:0919200:35:16 02:16:08 
19911928FChelsea CoffinWashington DC15600:18:0822700:06:2321201:17:5821400:03:0115800:30:50 02:16:18 
20067450FDiana WilcoxLorton VA20700:22:2616300:03:5619901:13:037400:01:2219700:36:02 02:16:48 
20110423FRachel CarneyWashington DC20200:21:567100:02:3922201:19:4918600:02:2914900:30:05 02:16:55 
20237128FChristie LerroWashington DC20400:22:0321700:05:2617401:08:1217700:02:1321100:39:27 02:17:20 
20348033FDebbie PedersonAlexandria VA11000:16:049900:02:5620601:15:1919300:02:3122300:42:26 02:19:15 
20420938FAmanda FreedleFalls Church VA22700:27:2017400:04:0619801:13:0221600:03:0417600:32:25 02:19:55 
20519364FNancy FauxMidlothian VA19600:21:1820900:05:0120101:13:4022000:03:1220300:37:43 02:20:53 
20646639FAlix Paget-BrownKeswick VA21200:22:5721200:05:0520001:13:228400:01:2420600:38:28 02:21:14 
20753249FJuanita RocaKensington MD18600:20:1216000:03:5320801:15:238600:01:2522000:41:05 02:21:56 
20812033FChristina CollWashington DC21100:22:4818400:04:1921001:16:4016100:01:5919900:36:47 02:22:31 
20952836FAna RivasWashington DC22200:24:4618100:04:1219501:12:0918800:02:3020700:38:57 02:22:32 
21061639FKristen StephenAlexandria VA21800:23:5922100:05:5518901:11:0020500:02:4621000:39:27 02:23:06 
21129130FAmelia HukovehAlexandria VA21700:23:5822300:05:5818801:11:0020300:02:4421200:39:28 02:23:06 
21224263FMarianna GoodingMontclair VA23000:29:1621500:05:1318701:10:5714400:01:5219500:35:58 02:23:15 
21350319FMegan PrattOak Hill VA15800:18:1916500:03:5622401:21:3113500:01:4520500:38:09 02:23:38 
2149745FSherry BucklesApex NC18900:20:3021800:05:3018601:10:3322300:03:2222600:45:05 02:24:57 
21512131FSarah CollinsArlington VA16000:18:2022200:05:5621301:18:3221200:02:5921800:40:07 02:25:52 
21653325FMargaret RockwellFront Royal VA21500:23:2618200:04:1221701:19:057200:01:2220800:39:03 02:27:06 
PlaceBibAgSNAMEcity/stateRankSWIMRankT1RankBIKERankT2RankRUNPENALTYTIMEDQ
2177547FLisa BooromWoodbridge VA15500:18:0415400:03:4621101:16:5522500:03:4722500:45:03 02:27:33 
21851046FYolanda RaffertManassas VA20600:22:2519900:04:3521801:19:0921000:02:5121700:40:06 02:29:04 
21936827FLindsey LehmanElizabeth City NC19000:20:3821100:05:0222501:22:3110600:01:3221900:40:19 02:30:00 
22032857FVeronique KesslerChevy Chase MD22900:28:5022600:06:1519701:12:5621700:03:0821500:39:51 02:30:58 
22140136FCarolyn MannMcLean VA21600:23:5719500:04:3322301:20:4521300:03:0020900:39:05 02:31:18 
22236259FLeanne LayneSpringfield VA21900:24:0020000:04:3521501:18:5518400:02:2021300:39:4800:02:0002:31:37 
22315540FPriscilla DemeoAlexandria VA20800:22:2721400:05:1221901:19:3218300:02:1922400:42:55 02:32:22 
22420838FLeigh FramptonAshburn VA21300:23:0722000:05:5521601:19:0022700:04:4322100:41:10 02:33:54 
22568125FMelissa WoolleyArlington VA9300:15:3020800:05:0122801:32:2212800:01:4221600:39:54 02:34:28 
22642842FWendy MerzNewport News VA20500:22:1622500:06:1022601:24:0019700:02:3722200:41:28 02:36:30 
22713921FMeghan CrockerSumerduck VA7800:15:046300:02:3422901:42:44400:00:4920400:37:56 02:39:05 
22833033FAngela KigerAlexandria VA22100:24:4221600:05:1621401:18:5522400:03:3522700:47:44 02:40:10 
22917528FKatie DrennanWashington DC11200:16:0814200:03:305500:55:1415400:01:55 DNF DNF 
23061534FErica SteeleClarksburg MD12200:16:1614600:03:339901:00:20     DNF 

** Results are for the private use of participants and are the Intellectual Property of Set Up Events. Unauthorized use of these results is prohibited.